createdAt,value
2023-05-18T00:04:22.036Z,43.96
2023-05-18T00:09:27.637Z,44.92
2023-05-18T00:14:31.838Z,44.08
2023-05-18T00:19:35.486Z,44.69
2023-05-18T00:24:40.879Z,45.17
2023-05-18T00:29:44.542Z,45.74
2023-05-18T00:34:48.230Z,46.50
2023-05-18T00:39:53.539Z,48.28
2023-05-18T00:44:57.259Z,48.07
2023-05-18T00:50:00.904Z,47.16
2023-05-18T00:55:07.268Z,46.86
2023-05-18T01:00:12.092Z,47.03
2023-05-18T01:05:15.789Z,46.61
2023-05-18T01:10:21.424Z,46.32
2023-05-18T01:15:30.820Z,46.32
2023-05-18T01:20:37.834Z,45.89
2023-05-18T01:25:51.048Z,46.19
2023-05-18T01:30:57.316Z,46.32
2023-05-18T01:36:00.995Z,46.08
2023-05-18T01:41:12.232Z,48.50
2023-05-18T01:46:25.219Z,47.31
2023-05-18T01:51:34.511Z,48.17
2023-05-18T01:56:39.850Z,48.09
2023-05-18T02:01:46.164Z,48.38
2023-05-18T02:06:49.912Z,47.88
2023-05-18T02:11:53.745Z,47.84
2023-05-18T02:16:59.138Z,47.39
2023-05-18T02:22:02.740Z,45.42
2023-05-18T02:27:07.333Z,44.77
2023-05-18T02:32:12.731Z,44.48
2023-05-18T02:37:17.204Z,48.00
2023-05-18T02:42:20.920Z,51.98
2023-05-18T02:47:26.331Z,54.88
2023-05-18T02:52:30.056Z,55.26
2023-05-18T02:57:34.332Z,57.65
2023-05-18T03:02:39.738Z,59.80
2023-05-18T03:07:43.496Z,59.89
2023-05-18T03:12:47.323Z,60.33
2023-05-18T03:17:52.673Z,61.46
2023-05-18T03:22:55.622Z,61.99
2023-05-18T03:27:59.272Z,59.91
2023-05-18T03:33:04.951Z,59.76
2023-05-18T03:38:08.663Z,60.07
2023-05-18T03:43:12.308Z,59.92
2023-05-18T03:48:17.648Z,60.61
2023-05-18T03:53:21.429Z,60.58
2023-05-18T03:58:25.140Z,60.63
2023-05-18T04:03:30.693Z,61.72
2023-05-18T04:08:34.579Z,62.24
2023-05-18T04:13:39.617Z,62.50
2023-05-18T04:18:45.046Z,63.01
2023-05-18T04:23:48.737Z,63.47
2023-05-18T04:28:52.339Z,64.03
2023-05-18T04:33:57.736Z,64.56
2023-05-18T04:39:02.243Z,64.67
2023-05-18T04:44:05.925Z,66.19
2023-05-18T04:49:11.213Z,67.33
2023-05-18T04:54:14.851Z,66.57
2023-05-18T04:59:19.137Z,66.73
2023-05-18T05:04:24.691Z,67.71
2023-05-18T05:09:28.385Z,67.59
2023-05-18T05:14:32.722Z,68.29
2023-05-18T05:19:38.081Z,68.70
2023-05-18T05:24:41.746Z,69.54
2023-05-18T05:29:47.979Z,70.12
2023-05-18T05:34:53.290Z,69.79
2023-05-18T05:39:56.926Z,69.49
2023-05-18T05:45:00.584Z,70.03
2023-05-18T05:50:06.626Z,70.90
2023-05-18T05:55:10.423Z,70.08
2023-05-18T06:00:15.197Z,70.76
2023-05-18T06:05:20.474Z,71.38
2023-05-18T06:10:24.189Z,71.28
2023-05-18T06:15:27.967Z,71.15
2023-05-18T06:20:33.556Z,71.85
2023-05-18T06:25:37.213Z,72.21
2023-05-18T06:30:41.001Z,72.17
2023-05-18T06:35:46.351Z,73.06
2023-05-18T06:40:50.036Z,72.69
2023-05-18T06:45:53.722Z,72.62
2023-05-18T06:50:59.060Z,73.08
2023-05-18T06:56:02.711Z,73.34
2023-05-18T07:01:06.488Z,73.07
2023-05-18T07:06:11.941Z,73.25
2023-05-18T07:11:15.823Z,73.12
2023-05-18T07:16:19.535Z,73.41
2023-05-18T07:21:24.988Z,73.72
2023-05-18T07:26:28.668Z,74.06
2023-05-18T07:31:32.418Z,73.61
2023-05-18T07:36:37.806Z,74.24
2023-05-18T07:41:41.413Z,74.31
2023-05-18T07:46:45.089Z,74.20
2023-05-18T07:51:50.448Z,74.95
2023-05-18T07:56:54.057Z,75.01
2023-05-18T08:01:57.726Z,74.13
2023-05-18T08:07:03.051Z,74.60
2023-05-18T08:12:07.143Z,74.46
2023-05-18T08:17:10.952Z,74.46
2023-05-18T08:22:16.517Z,74.81
2023-05-18T08:27:20.151Z,75.06
2023-05-18T08:32:24.010Z,75.25
2023-05-18T08:37:29.645Z,75.96
2023-05-18T08:42:49.249Z,75.59
2023-05-18T08:47:56.539Z,74.98
2023-05-18T08:53:05.757Z,75.37
2023-05-18T08:58:14.661Z,75.18
2023-05-18T09:03:18.588Z,75.11
2023-05-18T09:08:25.134Z,75.31
2023-05-18T09:13:30.147Z,75.27
2023-05-18T09:18:33.854Z,75.60
2023-05-18T09:23:40.052Z,76.05
2023-05-18T09:28:44.614Z,76.38
2023-05-18T09:33:49.130Z,76.97
2023-05-18T09:38:55.369Z,76.45
2023-05-18T09:43:59.027Z,76.72
2023-05-18T09:49:04.480Z,76.81
2023-05-18T09:54:11.183Z,77.48
2023-05-18T09:59:16.328Z,77.69
2023-05-18T10:04:21.440Z,77.98
2023-05-18T10:09:26.837Z,77.55
2023-05-18T10:14:33.915Z,77.14
2023-05-18T10:19:38.991Z,76.87
2023-05-18T10:24:46.540Z,77.60
2023-05-18T10:29:52.072Z,77.16
2023-05-18T10:34:57.818Z,77.13
2023-05-18T10:40:04.390Z,77.86
2023-05-18T10:45:10.269Z,77.66
2023-05-18T10:50:14.932Z,77.41
2023-05-18T10:55:20.621Z,77.56
2023-05-18T11:00:24.423Z,77.76
2023-05-18T11:05:28.566Z,77.42
2023-05-18T11:10:45.394Z,77.75
2023-05-18T11:16:08.286Z,78.22
2023-05-18T11:21:22.490Z,78.29
2023-05-18T11:26:30.586Z,77.97
2023-05-18T11:31:45.451Z,78.21
2023-05-18T11:36:56.866Z,78.57
2023-05-18T11:42:03.619Z,77.15
2023-05-18T11:47:10.097Z,77.70
2023-05-18T11:52:20.061Z,78.36
2023-05-18T11:57:27.477Z,79.56
2023-05-18T12:02:33.356Z,78.97
2023-05-18T12:07:37.949Z,78.45
2023-05-18T12:12:43.851Z,79.05
2023-05-18T12:17:49.123Z,79.26
2023-05-18T12:22:54.813Z,78.16
2023-05-18T12:28:01.722Z,78.47
2023-05-18T12:33:05.591Z,77.74
2023-05-18T12:38:09.299Z,78.10
2023-05-18T12:43:15.913Z,79.28
2023-05-18T12:48:19.664Z,78.35
2023-05-18T12:53:23.369Z,78.79
2023-05-18T12:58:28.650Z,78.50
2023-05-18T13:03:34.522Z,79.06
2023-05-18T13:08:38.588Z,77.83
2023-05-18T13:13:59.155Z,80.40
2023-05-18T13:19:04.618Z,80.00
2023-05-18T13:24:08.703Z,80.09
2023-05-18T13:29:13.970Z,80.98
2023-05-18T13:34:17.613Z,81.79
2023-05-18T13:39:21.275Z,80.21
2023-05-18T13:44:26.576Z,79.33
2023-05-18T13:49:30.264Z,80.91
2023-05-18T13:54:33.937Z,80.79
2023-05-18T13:59:39.256Z,83.67
2023-05-18T14:04:42.875Z,81.59
2023-05-18T14:09:46.560Z,82.07
2023-05-18T14:14:51.887Z,81.93
2023-05-18T14:19:55.542Z,81.23
2023-05-18T14:24:59.356Z,79.09
2023-05-18T14:30:05.209Z,76.04
2023-05-18T14:35:09.687Z,76.35
2023-05-18T14:40:13.733Z,74.93
2023-05-18T14:45:19.183Z,71.79
2023-05-18T14:50:22.967Z,71.14
2023-05-18T14:55:26.720Z,69.02
2023-05-18T15:00:32.375Z,65.74
2023-05-18T15:05:35.601Z,64.74
2023-05-18T15:10:39.252Z,63.38
2023-05-18T15:15:44.567Z,61.19
2023-05-18T15:20:48.217Z,59.37
2023-05-18T15:25:51.939Z,58.65
2023-05-18T15:30:57.224Z,57.13
2023-05-18T15:36:00.955Z,57.37
2023-05-18T15:41:04.681Z,56.58
2023-05-18T15:46:10.041Z,53.72
2023-05-18T15:51:18.634Z,53.77
2023-05-18T15:56:23.032Z,53.39
2023-05-18T16:01:28.432Z,52.06
2023-05-18T16:06:31.373Z,49.56
2023-05-18T16:11:35.211Z,50.38
2023-05-18T16:16:40.574Z,49.52
2023-05-18T16:21:44.329Z,49.11
2023-05-18T16:26:48.054Z,47.61
2023-05-18T16:31:53.409Z,47.95
2023-05-18T16:36:57.159Z,47.53
2023-05-18T16:42:00.788Z,48.79
2023-05-18T16:47:06.315Z,46.96
2023-05-18T16:52:09.960Z,47.67
2023-05-18T16:57:13.708Z,47.53
2023-05-18T17:02:20.026Z,46.62
2023-05-18T17:07:24.199Z,46.93
2023-05-18T17:12:27.906Z,46.32
2023-05-18T17:17:33.291Z,46.90
2023-05-18T17:22:37.555Z,46.74
2023-05-18T17:27:41.269Z,46.57
2023-05-18T17:32:46.640Z,46.41
2023-05-18T17:37:50.287Z,46.02
2023-05-18T17:42:53.954Z,45.89
2023-05-18T17:47:59.303Z,45.41
2023-05-18T17:53:03.026Z,44.69
2023-05-18T17:58:06.701Z,45.06
2023-05-18T18:03:12.139Z,44.88
2023-05-18T18:08:15.909Z,46.36
2023-05-18T18:13:19.597Z,45.50
2023-05-18T18:18:24.858Z,44.12
2023-05-18T18:23:28.517Z,45.24
2023-05-18T18:28:32.729Z,45.25
2023-05-18T18:33:38.054Z,43.86
2023-05-18T18:38:41.684Z,43.55
2023-05-18T18:43:45.561Z,44.18
2023-05-18T18:48:50.937Z,44.55
2023-05-18T18:53:54.583Z,44.98
2023-05-18T18:58:58.200Z,45.35
2023-05-18T19:04:03.486Z,45.95
2023-05-18T19:09:07.136Z,45.15
2023-05-18T19:14:10.814Z,45.39
2023-05-18T19:19:18.860Z,46.33
2023-05-18T19:24:22.613Z,45.25
2023-05-18T19:29:26.257Z,45.36
2023-05-18T19:34:31.578Z,45.02
2023-05-18T19:39:35.887Z,45.23
2023-05-18T19:44:39.554Z,44.89
2023-05-18T19:49:44.806Z,45.29
2023-05-18T19:54:48.463Z,44.57
2023-05-18T19:59:52.123Z,44.59
2023-05-18T20:04:57.450Z,44.53
2023-05-18T20:10:01.180Z,45.38
2023-05-18T20:15:05.486Z,44.17
2023-05-18T20:20:11.322Z,45.40
2023-05-18T20:25:15.131Z,44.52
2023-05-18T20:30:18.853Z,44.37
2023-05-18T20:35:24.893Z,46.91
2023-05-18T20:40:29.129Z,45.29
2023-05-18T20:45:33.049Z,46.22
2023-05-18T20:50:38.395Z,44.45
2023-05-18T20:55:42.096Z,43.34
2023-05-18T21:00:45.876Z,43.33
2023-05-18T21:05:51.175Z,42.46
2023-05-18T21:10:55.712Z,42.17
2023-05-18T21:16:00.334Z,37.33
2023-05-18T21:21:05.853Z,34.80
2023-05-18T21:26:09.589Z,35.23
2023-05-18T21:31:13.355Z,34.52
2023-05-18T21:36:20.908Z,33.61
2023-05-18T21:41:24.579Z,33.59
2023-05-18T21:46:28.654Z,33.67
2023-05-18T21:51:34.087Z,32.87
2023-05-18T21:56:37.857Z,32.45
2023-05-18T22:01:41.664Z,31.62
2023-05-18T22:06:47.640Z,30.63
2023-05-18T22:11:51.287Z,31.79
2023-05-18T22:16:55.033Z,31.06
2023-05-18T22:22:00.329Z,30.74
2023-05-18T22:27:04.103Z,30.88
2023-05-18T22:32:08.811Z,31.43
2023-05-18T22:37:14.689Z,30.31
2023-05-18T22:42:18.791Z,30.53
2023-05-18T22:47:22.453Z,30.56
2023-05-18T22:52:27.796Z,29.74
2023-05-18T22:57:31.488Z,29.96
2023-05-18T23:02:35.208Z,30.02
2023-05-18T23:07:40.486Z,29.70
2023-05-18T23:12:44.120Z,29.79
2023-05-18T23:17:47.813Z,29.59
2023-05-18T23:22:53.326Z,29.79
2023-05-18T23:27:57.021Z,30.09
2023-05-18T23:33:01.501Z,29.05
2023-05-18T23:38:09.958Z,28.91
2023-05-18T23:43:14.129Z,28.77
2023-05-18T23:48:18.326Z,28.23
2023-05-18T23:53:24.224Z,28.47
2023-05-18T23:58:29.785Z,28.95
